Terminal Aerodrome Forecast
Issued by NWS Wichita, KS

Home | Current Version | Previous Version | Text Only | Print | Product List | Glossary On
Versions: 1 2 3 4 5 6 7 8 9 10 11 12 13 14 15 16 17
000
FTUS43 KICT 291400 AAA
TAFICT
TAF AMD
KICT 291449Z 2915/3012 25009KT P6SM VCSH BKN080
     FM291600 25010KT P6SM SCT080
     FM291800 24014KT P6SM SCT070 OVC100
     FM300000 VRB06KT P6SM SCT070=

USA.gov is the U.S. government's official web portal to all federal, state and local government web resources and services.